Time;durP1;ratioP1;P1;durP2;ratioP2;P2;SDS_P1;SDS_P2;PMS_P1;PMS_P2;Temp;Humidity;BMP_temperature;BMP_pressure;BME280_temperature;BME280_humidity;BME280_pressure;Samples;Min_cycle;Max_cycle;Signal;HPM_P1;HPM_P2
2023/09/22 00:00:43;;;;;;;0.25;0.25;;;;;;;17.94;100.00;95048.47;5077178;28;20227;-70
2023/09/22 00:03:10;;;;;;;0.30;0.30;;;;;;;17.74;100.00;95053.56;5077098;28;20954;-70
2023/09/22 00:05:37;;;;;;;0.38;0.38;;;;;;;17.61;100.00;95059.28;5077085;28;20268;-71
2023/09/22 00:08:05;;;;;;;0.28;0.28;;;;;;;17.53;100.00;95057.06;5076560;28;20573;-73
2023/09/22 00:10:31;;;;;;;0.30;0.30;;;;;;;17.75;100.00;95044.53;5077741;28;20701;-72
2023/09/22 00:13:00;;;;;;;0.47;0.30;;;;;;;17.74;100.00;95042.91;5076839;28;20204;-70
2023/09/22 00:15:26;;;;;;;0.30;0.30;;;;;;;17.50;100.00;95038.09;5078035;28;20216;-70
2023/09/22 00:17:53;;;;;;;0.30;0.30;;;;;;;17.52;100.00;95055.44;5077447;28;20208;-71
2023/09/22 00:20:20;;;;;;;0.40;0.40;;;;;;;17.56;100.00;95053.88;5077168;28;20709;-69
2023/09/22 00:22:47;;;;;;;0.90;0.35;;;;;;;17.75;100.00;95060.53;5077788;28;20211;-70
2023/09/22 00:25:13;;;;;;;0.65;0.30;;;;;;;17.69;100.00;95066.84;5077131;28;20203;-73
2023/09/22 00:27:40;;;;;;;1.10;0.40;;;;;;;17.56;100.00;95059.22;5076638;28;20229;-69
2023/09/22 00:30:09;;;;;;;0.52;0.30;;;;;;;17.87;100.00;95059.34;5077750;28;20712;-71
2023/09/22 00:32:36;;;;;;;0.40;0.40;;;;;;;17.72;100.00;95058.38;5076611;28;20315;-73
2023/09/22 00:35:03;;;;;;;0.38;0.32;;;;;;;17.70;100.00;95047.13;5075647;28;20669;-72
2023/09/22 00:37:30;;;;;;;0.52;0.40;;;;;;;17.77;100.00;95042.44;5076553;28;20288;-70
2023/09/22 00:39:56;;;;;;;0.75;0.40;;;;;;;17.72;100.00;95037.06;5076977;28;20230;-72
2023/09/22 00:42:23;;;;;;;0.40;0.32;;;;;;;17.74;100.00;95040.25;5076995;28;20265;-70
2023/09/22 00:44:50;;;;;;;0.20;0.20;;;;;;;17.63;100.00;95032.38;5077384;28;20204;-71
2023/09/22 00:47:18;;;;;;;0.40;0.40;;;;;;;18.00;100.00;95040.28;5077039;28;20196;-72
2023/09/22 00:49:48;;;;;;;0.63;0.40;;;;;;;17.87;100.00;95034.53;5076042;28;20242;-69
2023/09/22 00:52:18;;;;;;;0.40;0.40;;;;;;;17.76;100.00;95041.63;5077219;28;20314;-72
2023/09/22 00:54:45;;;;;;;0.40;0.30;;;;;;;17.69;100.00;95048.19;5076530;28;20330;-70
2023/09/22 00:57:13;;;;;;;0.20;0.20;;;;;;;17.79;100.00;95046.47;5076310;28;20224;-69
2023/09/22 00:59:40;;;;;;;0.28;0.28;;;;;;;17.78;100.00;95050.19;5076445;28;20670;-72
2023/09/22 01:02:06;;;;;;;0.40;0.40;;;;;;;17.86;100.00;95054.25;5076550;28;20222;-69
2023/09/22 01:04:34;;;;;;;0.47;0.30;;;;;;;18.01;100.00;95059.75;5076212;28;20295;-69
2023/09/22 01:07:01;;;;;;;0.60;0.40;;;;;;;17.82;100.00;95058.50;5075422;28;20215;-70
2023/09/22 01:09:27;;;;;;;0.65;0.38;;;;;;;17.73;100.00;95067.94;5076109;28;20220;-72
2023/09/22 01:11:54;;;;;;;0.38;0.30;;;;;;;17.75;100.00;95081.84;5076496;28;20961;-73
2023/09/22 01:14:21;;;;;;;0.40;0.40;;;;;;;17.71;100.00;95072.72;5075385;28;21054;-71
2023/09/22 01:16:50;;;;;;;0.30;0.30;;;;;;;17.45;100.00;95070.81;5076870;28;20230;-72
2023/09/22 01:19:17;;;;;;;0.40;0.30;;;;;;;17.50;100.00;95078.88;5076270;28;20627;-71
2023/09/22 01:21:46;;;;;;;1.15;0.77;;;;;;;17.64;100.00;95080.09;5076823;28;20199;-69
2023/09/22 01:24:13;;;;;;;0.52;0.40;;;;;;;17.50;100.00;95081.53;5076295;28;20207;-72
2023/09/22 01:26:40;;;;;;;0.30;0.30;;;;;;;17.49;100.00;95077.25;5076910;28;20199;-69
2023/09/22 01:29:07;;;;;;;0.55;0.30;;;;;;;17.53;100.00;95083.69;5075730;28;20196;-71
2023/09/22 01:31:35;;;;;;;0.40;0.40;;;;;;;17.40;100.00;95084.06;5076459;28;20192;-69
2023/09/22 01:34:02;;;;;;;0.40;0.40;;;;;;;17.37;100.00;95089.06;5076414;28;20204;-70
2023/09/22 01:36:29;;;;;;;0.30;0.30;;;;;;;17.58;100.00;95096.25;5075873;28;20306;-73
2023/09/22 01:38:59;;;;;;;0.30;0.30;;;;;;;17.71;100.00;95091.38;5075919;28;20729;-72
2023/09/22 01:41:26;;;;;;;0.40;0.30;;;;;;;17.53;100.00;95102.34;5076311;28;20203;-71
2023/09/22 01:43:53;;;;;;;0.38;0.38;;;;;;;17.56;100.00;95099.19;5076098;28;20208;-70
2023/09/22 01:46:19;;;;;;;0.70;0.40;;;;;;;17.49;100.00;95093.25;5074909;28;20222;-71
2023/09/22 01:48:46;;;;;;;0.35;0.35;;;;;;;17.65;100.00;95097.69;5076665;28;20214;-72
2023/09/22 01:51:12;;;;;;;0.68;0.25;;;;;;;17.70;100.00;95099.63;5075755;28;20223;-70
2023/09/22 01:53:39;;;;;;;0.35;0.35;;;;;;;17.62;100.00;95103.53;5076058;28;20290;-71
2023/09/22 01:56:08;;;;;;;3.40;0.40;;;;;;;17.70;100.00;95096.97;5075861;28;20251;-69
2023/09/22 01:58:34;;;;;;;0.40;0.40;;;;;;;17.56;100.00;95088.53;5077100;28;20196;-69
2023/09/22 02:01:01;;;;;;;1.02;0.50;;;;;;;17.59;100.00;95088.03;5076011;28;20219;-74
2023/09/22 02:03:29;;;;;;;0.30;0.30;;;;;;;17.25;100.00;95085.72;5075458;28;20210;-71
2023/09/22 02:05:56;;;;;;;0.65;0.40;;;;;;;17.40;100.00;95081.41;5075295;28;20207;-69
2023/09/22 02:08:23;;;;;;;2.78;0.30;;;;;;;17.61;100.00;95077.94;5075687;28;20745;-70
2023/09/22 02:10:49;;;;;;;0.40;0.40;;;;;;;17.63;100.00;95083.00;5075708;28;20238;-70
2023/09/22 02:13:17;;;;;;;0.40;0.40;;;;;;;17.69;100.00;95080.16;5075377;28;20310;-70
2023/09/22 02:15:44;;;;;;;0.40;0.40;;;;;;;17.56;100.00;95079.72;5074421;28;20199;-72
2023/09/22 02:18:11;;;;;;;0.38;0.30;;;;;;;17.55;100.00;95078.91;5074708;28;20257;-70
2023/09/22 02:20:40;;;;;;;0.55;0.50;;;;;;;17.51;100.00;95074.34;5076334;28;20310;-70
2023/09/22 02:23:06;;;;;;;0.38;0.38;;;;;;;17.53;100.00;95080.25;5074907;28;20234;-70
2023/09/22 02:25:34;;;;;;;0.98;0.50;;;;;;;17.33;100.00;95071.97;5075175;28;20199;-72
2023/09/22 02:28:00;;;;;;;0.50;0.40;;;;;;;17.22;100.00;95070.19;5076190;28;20208;-69
2023/09/22 02:30:28;;;;;;;0.50;0.30;;;;;;;17.37;100.00;95073.88;5075271;28;20731;-69
2023/09/22 02:32:55;;;;;;;0.30;0.30;;;;;;;17.25;100.00;95072.41;5074834;28;20208;-69
2023/09/22 02:35:22;;;;;;;3.03;0.50;;;;;;;17.19;100.00;95076.00;5074466;28;20207;-71
2023/09/22 02:37:49;;;;;;;0.60;0.40;;;;;;;17.14;100.00;95076.75;5076472;28;20290;-70
2023/09/22 02:40:15;;;;;;;0.30;0.30;;;;;;;17.17;100.00;95073.59;5073509;28;20247;-70
2023/09/22 02:42:43;;;;;;;1.10;0.40;;;;;;;17.17;100.00;95062.94;5075060;28;20211;-73
2023/09/22 02:45:10;;;;;;;0.85;0.55;;;;;;;17.16;100.00;95063.19;5074078;28;20202;-73
2023/09/22 02:47:38;;;;;;;0.60;0.50;;;;;;;17.30;100.00;95051.97;5073796;28;20211;-69
2023/09/22 02:50:07;;;;;;;0.77;0.52;;;;;;;17.29;100.00;95050.34;5074694;28;20238;-69
2023/09/22 02:52:34;;;;;;;0.52;0.40;;;;;;;17.17;100.00;95046.16;5075205;28;20235;-69
2023/09/22 02:55:00;;;;;;;0.55;0.50;;;;;;;17.02;100.00;95053.13;5074902;28;20210;-70
2023/09/22 02:57:27;;;;;;;0.73;0.40;;;;;;;16.94;100.00;95066.84;5074350;28;20228;-70
2023/09/22 02:59:54;;;;;;;0.40;0.30;;;;;;;17.06;100.00;95067.56;5075319;28;20231;-70
2023/09/22 03:02:21;;;;;;;1.38;0.70;;;;;;;16.67;100.00;95052.59;5073870;28;20204;-69
2023/09/22 03:04:49;;;;;;;0.40;0.30;;;;;;;16.99;100.00;95053.63;5074697;28;20888;-74
2023/09/22 03:07:16;;;;;;;0.47;0.40;;;;;;;16.82;100.00;95053.63;5073867;28;20203;-70
2023/09/22 03:09:42;;;;;;;0.57;0.40;;;;;;;16.86;100.00;95064.59;5075555;28;20243;-71
2023/09/22 03:12:09;;;;;;;3.10;0.40;;;;;;;16.73;100.00;95070.25;5073415;28;20204;-69
2023/09/22 03:14:36;;;;;;;0.50;0.50;;;;;;;16.54;100.00;95072.34;5074321;28;20288;-70
2023/09/22 03:17:04;;;;;;;0.47;0.32;;;;;;;16.50;100.00;95059.78;5075078;28;20597;-73
2023/09/22 03:19:30;;;;;;;0.50;0.40;;;;;;;16.54;100.00;95068.88;5074631;28;20223;-70
2023/09/22 03:21:58;;;;;;;0.95;0.40;;;;;;;17.00;100.00;95090.63;5075022;28;20207;-71
2023/09/22 03:24:25;;;;;;;1.92;0.57;;;;;;;16.52;100.00;95086.91;5073036;28;20204;-70
2023/09/22 03:26:51;;;;;;;0.65;0.40;;;;;;;16.57;100.00;95081.69;5075748;28;20204;-72
2023/09/22 03:29:18;;;;;;;0.73;0.40;;;;;;;16.67;100.00;95097.81;5073010;28;21028;-69
2023/09/22 03:31:45;;;;;;;1.70;0.70;;;;;;;16.70;100.00;95130.06;5075165;28;20685;-71
2023/09/22 03:34:11;;;;;;;0.50;0.30;;;;;;;16.66;100.00;95147.56;5073331;28;20203;-69
2023/09/22 03:36:41;;;;;;;0.40;0.40;;;;;;;16.36;100.00;95158.72;5075729;28;20227;-70
2023/09/22 03:39:12;;;;;;;0.45;0.45;;;;;;;16.72;100.00;95159.09;5074340;28;20207;-70
2023/09/22 03:41:39;;;;;;;0.60;0.60;;;;;;;16.70;100.00;95155.84;5075125;28;20211;-70
2023/09/22 03:44:07;;;;;;;0.65;0.50;;;;;;;16.59;100.00;95159.38;5076770;28;20206;-72
2023/09/22 03:46:33;;;;;;;0.57;0.35;;;;;;;16.60;100.00;95159.16;5077273;28;20232;-70
2023/09/22 03:49:00;;;;;;;0.30;0.30;;;;;;;16.66;100.00;95160.03;5078467;28;20692;-69
2023/09/22 03:51:28;;;;;;;0.77;0.40;;;;;;;16.47;100.00;95163.97;5077311;28;20315;-69
2023/09/22 03:53:54;;;;;;;0.43;0.43;;;;;;;16.55;100.00;95168.91;5078293;28;21049;-72
2023/09/22 03:56:22;;;;;;;1.05;0.52;;;;;;;16.63;100.00;95161.31;5076134;28;20200;-69
2023/09/22 03:58:49;;;;;;;1.75;0.70;;;;;;;16.63;100.00;95157.88;5078928;28;20203;-70
2023/09/22 04:01:15;;;;;;;2.63;0.82;;;;;;;16.40;100.00;95139.38;5076777;28;20219;-73
2023/09/22 04:03:42;;;;;;;0.43;0.43;;;;;;;16.57;100.00;95134.88;5078444;28;20200;-71
2023/09/22 04:06:09;;;;;;;2.83;0.50;;;;;;;16.64;100.00;95130.22;5076902;28;20206;-68
2023/09/22 04:08:35;;;;;;;1.95;0.57;;;;;;;16.63;100.00;95134.72;5077985;28;20200;-69
2023/09/22 04:11:02;;;;;;;1.05;0.50;;;;;;;16.67;100.00;95143.03;5077925;28;20220;-72
2023/09/22 04:13:30;;;;;;;0.47;0.40;;;;;;;16.82;100.00;95143.28;5077919;28;20211;-68
2023/09/22 04:16:01;;;;;;;0.43;0.40;;;;;;;16.99;100.00;95144.91;5077425;28;20203;-69
2023/09/22 04:18:29;;;;;;;1.02;0.60;;;;;;;16.72;100.00;95148.44;5076831;28;20234;-68
2023/09/22 04:20:56;;;;;;;0.40;0.40;;;;;;;16.70;100.00;95156.66;5077777;28;20227;-70
2023/09/22 04:23:24;;;;;;;1.02;0.70;;;;;;;16.70;100.00;95150.53;5076996;28;20226;-72
2023/09/22 04:25:53;;;;;;;0.60;0.40;;;;;;;16.55;100.00;95164.38;5077278;28;20210;-69
2023/09/22 04:28:23;;;;;;;0.80;0.57;;;;;;;16.55;100.00;95172.34;5077512;28;21031;-73
2023/09/22 04:30:51;;;;;;;0.55;0.52;;;;;;;16.73;100.00;95171.34;5078050;28;20361;-72
2023/09/22 04:33:19;;;;;;;1.25;0.60;;;;;;;16.64;100.00;95170.91;5076723;28;20208;-70
2023/09/22 04:35:46;;;;;;;1.95;0.57;;;;;;;16.60;100.00;95169.00;5076697;28;20292;-69
2023/09/22 04:38:13;;;;;;;0.98;0.60;;;;;;;16.72;100.00;95167.06;5077596;28;20224;-72
2023/09/22 04:40:40;;;;;;;0.40;0.40;;;;;;;16.79;100.00;95173.84;5076124;28;20224;-72
2023/09/22 04:43:07;;;;;;;0.90;0.63;;;;;;;16.84;100.00;95178.44;5077685;28;20235;-71
2023/09/22 04:45:36;;;;;;;0.90;0.68;;;;;;;16.98;100.00;95182.41;5076002;28;20205;-71
2023/09/22 04:48:05;;;;;;;1.13;0.60;;;;;;;17.00;100.00;95172.34;5078262;28;20210;-72
2023/09/22 04:50:32;;;;;;;0.50;0.50;;;;;;;16.81;100.00;95179.72;5076415;28;20583;-69
2023/09/22 04:53:00;;;;;;;0.50;0.50;;;;;;;16.86;100.00;95171.03;5077497;28;20253;-70
2023/09/22 04:55:29;;;;;;;0.98;0.75;;;;;;;16.76;100.00;95171.69;5074864;28;20840;-69
2023/09/22 04:57:56;;;;;;;0.88;0.55;;;;;;;16.88;100.00;95160.94;5076257;28;20314;-68
2023/09/22 05:00:24;;;;;;;0.85;0.60;;;;;;;16.85;100.00;95142.81;5076544;28;20227;-72
2023/09/22 05:02:52;;;;;;;0.50;0.43;;;;;;;16.80;100.00;95121.44;5077183;28;20207;-68
2023/09/22 05:05:22;;;;;;;3.80;1.52;;;;;;;16.77;100.00;95097.97;5075529;28;20211;-69
2023/09/22 05:07:50;;;;;;;0.90;0.80;;;;;;;16.52;100.00;95101.03;5074930;28;20665;-69
2023/09/22 05:10:17;;;;;;;1.45;0.73;;;;;;;16.51;100.00;95127.88;5076584;28;20255;-70
2023/09/22 05:12:43;;;;;;;4.40;1.17;;;;;;;16.52;100.00;95153.41;5075899;28;20398;-70
2023/09/22 05:15:10;;;;;;;2.25;1.15;;;;;;;16.55;100.00;95167.03;5076152;28;20200;-71
2023/09/22 05:17:37;;;;;;;2.28;0.50;;;;;;;16.45;100.00;95163.38;5076210;28;20220;-72
2023/09/22 05:20:05;;;;;;;0.55;0.43;;;;;;;16.54;100.00;95167.28;5076697;28;20713;-70
2023/09/22 05:22:34;;;;;;;1.60;0.47;;;;;;;16.52;100.00;95162.19;5075403;28;20215;-69
2023/09/22 05:25:00;;;;;;;1.05;0.60;;;;;;;16.22;100.00;95152.81;5076172;28;20223;-72
2023/09/22 05:27:28;;;;;;;1.63;0.85;;;;;;;16.38;100.00;95154.75;5076029;28;20214;-71
2023/09/22 05:29:55;;;;;;;1.35;1.00;;;;;;;16.34;100.00;95166.88;5075689;28;20235;-72
2023/09/22 05:32:21;;;;;;;2.58;0.95;;;;;;;16.34;100.00;95182.84;5075829;28;20204;-71
2023/09/22 05:34:51;;;;;;;0.95;0.65;;;;;;;16.44;100.00;95192.88;5075213;28;20623;-72
2023/09/22 05:37:18;;;;;;;1.00;0.60;;;;;;;16.45;100.00;95189.19;5075664;28;20234;-70
2023/09/22 05:39:46;;;;;;;1.23;0.82;;;;;;;16.54;100.00;95194.66;5075895;28;20677;-69
2023/09/22 05:42:13;;;;;;;0.75;0.60;;;;;;;16.31;100.00;95204.59;5075126;28;20686;-71
2023/09/22 05:44:40;;;;;;;1.73;0.60;;;;;;;16.34;100.00;95208.63;5075927;28;20207;-69
2023/09/22 05:47:07;;;;;;;0.50;0.50;;;;;;;16.34;100.00;95209.44;5075245;28;20195;-71
2023/09/22 05:49:33;;;;;;;1.00;0.52;;;;;;;16.31;100.00;95215.22;5075955;28;20596;-70
2023/09/22 05:52:00;;;;;;;0.60;0.47;;;;;;;16.17;100.00;95205.09;5075497;28;20230;-72
2023/09/22 05:54:26;;;;;;;0.85;0.63;;;;;;;16.23;100.00;95201.47;5075392;28;20280;-71
2023/09/22 05:56:54;;;;;;;1.92;1.10;;;;;;;16.00;100.00;95191.72;5075110;28;20203;-70
2023/09/22 05:59:22;;;;;;;5.47;1.85;;;;;;;16.02;100.00;95191.47;5075929;28;20238;-72
2023/09/22 06:01:48;;;;;;;2.30;1.35;;;;;;;16.23;100.00;95202.28;5072464;28;20196;-69
2023/09/22 06:04:15;;;;;;;3.75;1.70;;;;;;;16.15;100.00;95209.81;5073039;28;20204;-69
2023/09/22 06:06:42;;;;;;;2.05;1.20;;;;;;;16.28;100.00;95213.06;5070825;28;20203;-69
2023/09/22 06:09:10;;;;;;;2.97;1.02;;;;;;;16.31;100.00;95220.56;5075007;28;20200;-69
2023/09/22 06:11:38;;;;;;;1.52;0.65;;;;;;;16.24;100.00;95224.34;5076095;28;20290;-71
2023/09/22 06:14:07;;;;;;;3.47;0.52;;;;;;;16.27;100.00;95219.41;5074631;28;20212;-69
2023/09/22 06:16:34;;;;;;;1.35;0.73;;;;;;;16.30;100.00;95226.09;5075349;28;20203;-72
2023/09/22 06:19:01;;;;;;;1.80;0.95;;;;;;;16.20;100.00;95217.88;5074630;28;20227;-71
2023/09/22 06:21:29;;;;;;;3.47;1.70;;;;;;;16.19;100.00;95217.09;5075789;28;20210;-72
2023/09/22 06:23:56;;;;;;;3.75;1.90;;;;;;;16.13;100.00;95222.56;5075018;28;20226;-69
2023/09/22 06:26:24;;;;;;;4.20;2.05;;;;;;;16.09;100.00;95237.34;5074651;28;20295;-71
2023/09/22 06:28:51;;;;;;;4.38;1.10;;;;;;;16.00;100.00;95242.22;5075626;28;20294;-71
2023/09/22 06:31:19;;;;;;;2.17;0.85;;;;;;;16.16;100.00;95248.66;5075231;28;20306;-69
2023/09/22 06:33:45;;;;;;;1.45;0.70;;;;;;;16.02;100.00;95256.06;5074266;28;20200;-70
2023/09/22 06:36:12;;;;;;;3.42;0.70;;;;;;;16.14;100.00;95266.66;5074780;28;20218;-72
2023/09/22 06:38:39;;;;;;;2.55;0.60;;;;;;;16.15;100.00;95279.75;5075686;28;20227;-69
2023/09/22 06:41:06;;;;;;;1.40;0.70;;;;;;;16.14;100.00;95285.28;5074242;28;20231;-71
2023/09/22 06:43:33;;;;;;;1.55;0.70;;;;;;;16.08;100.00;95295.00;5074509;28;20203;-71
2023/09/22 06:46:04;;;;;;;0.50;0.50;;;;;;;16.22;100.00;95290.25;5075196;28;20212;-70
2023/09/22 06:48:33;;;;;;;0.50;0.50;;;;;;;16.23;100.00;95297.16;5074737;28;20291;-71
2023/09/22 06:51:00;;;;;;;0.77;0.50;;;;;;;15.92;100.00;95295.72;5075108;28;20647;-71
2023/09/22 06:53:28;;;;;;;1.42;0.60;;;;;;;16.16;100.00;95291.19;5075070;28;20214;-69
2023/09/22 06:56:06;;;;;;;0.60;0.50;;;;;;;16.42;100.00;95288.84;5074818;28;20666;-69
2023/09/22 06:58:33;;;;;;;0.93;0.57;;;;;;;16.19;100.00;95291.53;5073952;28;20548;-69
2023/09/22 07:01:07;;;;;;;0.60;0.50;;;;;;;16.33;100.00;95298.25;5075402;28;20232;-69
2023/09/22 07:03:35;;;;;;;1.15;0.77;;;;;;;16.31;100.00;95300.31;5074473;28;20243;-70
2023/09/22 07:06:02;;;;;;;1.85;1.08;;;;;;;16.25;100.00;95303.84;5074460;28;20677;-71
2023/09/22 07:08:29;;;;;;;1.25;1.08;;;;;;;16.23;100.00;95305.97;5073610;28;20204;-71
2023/09/22 07:11:01;;;;;;;5.90;1.92;;;;;;;16.48;100.00;95298.53;5073174;28;20235;-70
2023/09/22 07:13:29;;;;;;;4.22;2.42;;;;;;;16.12;100.00;95301.47;5071080;28;20200;-71
2023/09/22 07:15:56;;;;;;;3.38;1.63;;;;;;;16.08;100.00;95295.00;5072147;28;20236;-70
2023/09/22 07:18:24;;;;;;;5.82;2.33;;;;;;;16.31;100.00;95295.00;5077200;28;20227;-69
2023/09/22 07:20:52;;;;;;;4.38;2.17;;;;;;;16.47;100.00;95293.44;5077789;28;20289;-71
2023/09/22 07:23:18;;;;;;;3.58;1.60;;;;;;;16.28;100.00;95298.13;5078598;28;20218;-69
2023/09/22 07:25:45;;;;;;;6.10;2.22;;;;;;;16.35;100.00;95293.47;5077942;28;20196;-71
2023/09/22 07:28:13;;;;;;;6.80;2.50;;;;;;;16.18;100.00;95289.09;5078139;28;20203;-69
2023/09/22 07:30:39;;;;;;;3.95;2.03;;;;;;;16.28;100.00;95278.69;5077492;28;20227;-69
2023/09/22 07:33:06;;;;;;;5.55;2.28;;;;;;;16.27;100.00;95293.06;5078730;28;20214;-71
2023/09/22 07:35:32;;;;;;;4.30;2.30;;;;;;;16.30;100.00;95288.06;5077488;28;20204;-70
2023/09/22 07:38:00;;;;;;;3.80;2.10;;;;;;;16.37;100.00;95294.06;5077758;28;20227;-69
2023/09/22 07:40:27;;;;;;;4.35;2.08;;;;;;;16.28;100.00;95292.81;5077491;28;20228;-69
2023/09/22 07:42:54;;;;;;;5.32;2.35;;;;;;;16.33;100.00;95282.28;5078830;28;20687;-70
2023/09/22 07:45:20;;;;;;;3.08;1.52;;;;;;;16.31;100.00;95288.88;5077723;28;20203;-70
2023/09/22 07:47:47;;;;;;;4.18;2.35;;;;;;;16.48;100.00;95287.09;5077522;28;20196;-69
2023/09/22 07:50:14;;;;;;;3.42;1.52;;;;;;;16.46;100.00;95292.66;5078593;28;20228;-70
2023/09/22 07:52:42;;;;;;;2.13;1.38;;;;;;;16.52;100.00;95289.84;5077241;28;20203;-70
2023/09/22 07:55:14;;;;;;;2.45;1.40;;;;;;;16.64;100.00;95284.50;5077834;28;20199;-70
2023/09/22 07:57:40;;;;;;;2.28;1.30;;;;;;;16.72;100.00;95289.44;5078228;28;20204;-69
2023/09/22 08:00:10;;;;;;;1.52;0.90;;;;;;;16.88;100.00;95301.97;5078193;28;20226;-71
2023/09/22 08:02:37;;;;;;;3.03;1.10;;;;;;;16.75;100.00;95305.75;5076334;28;20281;-71
2023/09/22 08:05:04;;;;;;;4.25;1.65;;;;;;;16.87;100.00;95308.38;5078227;28;21330;-69
2023/09/22 08:07:30;;;;;;;3.25;1.77;;;;;;;16.80;100.00;95313.00;5077435;28;20208;-71
2023/09/22 08:09:57;;;;;;;4.57;2.33;;;;;;;16.79;100.00;95325.50;5077720;28;20232;-71
2023/09/22 08:12:24;;;;;;;3.72;1.90;;;;;;;16.91;100.00;95325.47;5078025;28;20210;-70
2023/09/22 08:14:51;;;;;;;3.38;1.90;;;;;;;16.79;100.00;95333.50;5076497;28;20206;-70
2023/09/22 08:17:18;;;;;;;3.03;1.90;;;;;;;16.65;100.00;95334.00;5075916;28;20250;-70
2023/09/22 08:19:44;;;;;;;1.85;1.15;;;;;;;16.71;100.00;95333.03;5073485;28;20297;-70
2023/09/22 08:22:12;;;;;;;3.53;1.33;;;;;;;16.44;100.00;95341.78;5074522;28;20233;-71
2023/09/22 08:24:39;;;;;;;4.32;2.05;;;;;;;16.32;100.00;95343.66;5073680;28;20199;-70
2023/09/22 08:27:06;;;;;;;3.25;1.50;;;;;;;16.46;100.00;95339.69;5076187;28;20211;-69
2023/09/22 08:29:34;;;;;;;2.60;1.48;;;;;;;16.58;100.00;95338.63;5074652;28;20212;-71
2023/09/22 08:32:01;;;;;;;1.85;1.10;;;;;;;16.56;100.00;95346.84;5074965;28;20623;-70
2023/09/22 08:34:29;;;;;;;2.92;1.50;;;;;;;16.64;100.00;95351.00;5073772;28;20202;-70
2023/09/22 08:36:55;;;;;;;4.78;1.58;;;;;;;16.62;100.00;95351.25;5074524;28;20749;-69
2023/09/22 08:39:22;;;;;;;1.90;1.35;;;;;;;16.58;100.00;95350.06;5074240;28;20224;-70
2023/09/22 08:41:48;;;;;;;2.33;1.70;;;;;;;16.47;100.00;95354.63;5075498;28;20196;-69
2023/09/22 08:44:15;;;;;;;2.25;1.60;;;;;;;16.49;100.00;95345.34;5075935;28;20207;-69
2023/09/22 08:46:44;;;;;;;1.55;1.45;;;;;;;16.44;100.00;95347.13;5073438;28;20200;-69
2023/09/22 08:49:10;;;;;;;1.67;0.70;;;;;;;16.47;100.00;95346.63;5075606;28;20743;-69
2023/09/22 08:51:37;;;;;;;1.52;0.88;;;;;;;16.29;100.00;95349.44;5075712;28;21132;-70
2023/09/22 08:54:04;;;;;;;2.33;1.05;;;;;;;16.46;100.00;95351.16;5075988;28;21250;-70
2023/09/22 08:56:31;;;;;;;2.42;1.08;;;;;;;16.42;100.00;95360.66;5074726;28;21151;-69
2023/09/22 08:58:57;;;;;;;2.67;1.98;;;;;;;16.45;100.00;95351.41;5075899;28;20223;-69
2023/09/22 09:01:24;;;;;;;3.55;0.98;;;;;;;16.51;100.00;95332.66;5075796;28;20478;-70
2023/09/22 09:03:52;;;;;;;4.30;1.98;;;;;;;16.66;100.00;95330.28;5075458;28;20203;-69
2023/09/22 09:06:20;;;;;;;4.28;1.98;;;;;;;16.46;100.00;95337.88;5075008;28;20206;-71
2023/09/22 09:09:06;;;;;;;1.95;1.17;;;;;;;16.79;100.00;95336.16;5075057;28;20211;-70
2023/09/22 09:11:32;;;;;;;2.20;1.67;;;;;;;16.75;100.00;95344.81;5075140;28;20299;-70
2023/09/22 09:13:59;;;;;;;2.33;1.50;;;;;;;16.72;100.00;95330.13;5074780;28;20204;-69
2023/09/22 09:16:32;;;;;;;2.00;0.90;;;;;;;16.85;100.00;95318.41;5075125;28;20228;-70
2023/09/22 09:19:15;;;;;;;1.92;1.15;;;;;;;17.07;100.00;95319.38;5076195;28;20255;-70
2023/09/22 09:22:04;;;;;;;2.35;1.35;;;;;;;17.15;100.00;95325.13;5075132;28;20840;-70
2023/09/22 09:24:31;;;;;;;1.58;0.80;;;;;;;16.77;100.00;95340.09;5074682;28;20207;-70
2023/09/22 09:26:58;;;;;;;1.48;0.70;;;;;;;16.76;100.00;95346.44;5076225;28;20203;-70
2023/09/22 09:29:27;;;;;;;1.25;0.82;;;;;;;17.06;100.00;95341.72;5074443;28;20225;-70
2023/09/22 09:31:55;;;;;;;1.02;0.60;;;;;;;16.66;100.00;95347.06;5075433;28;20204;-70
2023/09/22 09:34:39;;;;;;;1.77;1.02;;;;;;;16.86;100.00;95342.13;5074675;28;20210;-70
2023/09/22 09:37:13;;;;;;;1.33;0.70;;;;;;;16.60;100.00;95347.19;5074881;28;20290;-70
2023/09/22 09:39:45;;;;;;;1.60;1.15;;;;;;;16.73;100.00;95342.41;5073722;28;20274;-71
2023/09/22 09:42:16;;;;;;;0.70;0.60;;;;;;;16.54;100.00;95348.13;5072338;28;20207;-70
2023/09/22 09:44:49;;;;;;;1.73;0.80;;;;;;;16.49;100.00;95362.13;5072981;28;20264;-70
2023/09/22 09:47:22;;;;;;;0.40;0.40;;;;;;;16.34;100.00;95365.50;5074493;28;20204;-70
2023/09/22 09:49:52;;;;;;;1.05;0.60;;;;;;;16.31;100.00;95355.34;5073853;28;20259;-70
2023/09/22 09:52:22;;;;;;;0.50;0.40;;;;;;;16.20;100.00;95354.25;5072891;28;20196;-69
2023/09/22 09:54:58;;;;;;;1.13;0.75;;;;;;;16.35;100.00;95351.19;5073371;28;20752;-69
2023/09/22 09:57:25;;;;;;;0.73;0.50;;;;;;;16.12;100.00;95343.97;5074521;28;20219;-70
2023/09/22 09:59:53;;;;;;;0.90;0.50;;;;;;;16.09;100.00;95349.78;5074445;28;20306;-69
2023/09/22 10:02:20;;;;;;;0.80;0.52;;;;;;;15.93;100.00;95344.34;5075441;28;20199;-70
2023/09/22 10:04:50;;;;;;;1.73;0.40;;;;;;;16.04;100.00;95346.19;5073117;28;20199;-69
2023/09/22 10:07:17;;;;;;;0.60;0.40;;;;;;;15.67;100.00;95349.28;5075217;28;20206;-69
2023/09/22 10:09:44;;;;;;;0.55;0.50;;;;;;;15.91;100.00;95341.09;5074153;28;20211;-70
2023/09/22 10:12:11;;;;;;;1.98;0.52;;;;;;;15.92;100.00;95343.53;5074884;28;20207;-69
2023/09/22 10:14:44;;;;;;;1.25;0.50;;;;;;;16.13;100.00;95345.59;5073590;28;20203;-69
2023/09/22 10:17:21;;;;;;;0.50;0.45;;;;;;;16.26;100.00;95349.91;5075306;28;20667;-70
2023/09/22 10:19:47;;;;;;;0.65;0.60;;;;;;;15.92;100.00;95362.13;5074736;28;20310;-70
2023/09/22 10:22:15;;;;;;;1.95;0.60;;;;;;;16.26;100.00;95365.84;5074452;28;20227;-69
2023/09/22 10:24:42;;;;;;;1.50;0.50;;;;;;;16.20;100.00;95372.84;5072444;28;20210;-69
2023/09/22 10:27:15;;;;;;;2.33;0.50;;;;;;;16.13;100.00;95366.88;5075142;28;20200;-70
2023/09/22 10:29:51;;;;;;;4.82;0.50;;;;;;;16.04;100.00;95376.22;5074326;28;20265;-69
2023/09/22 10:32:23;;;;;;;1.35;0.93;;;;;;;15.86;100.00;95368.38;5074519;28;20203;-70
2023/09/22 10:34:51;;;;;;;1.73;0.73;;;;;;;16.23;100.00;95377.72;5073259;28;20211;-70
2023/09/22 10:37:20;;;;;;;0.47;0.32;;;;;;;16.23;100.00;95380.41;5074024;28;20214;-70
2023/09/22 10:39:54;;;;;;;0.40;0.38;;;;;;;16.07;100.00;95370.44;5074245;28;20636;-70
2023/09/22 10:42:21;;;;;;;0.77;0.40;;;;;;;16.14;100.00;95376.47;5073255;28;20202;-70
2023/09/22 10:45:02;;;;;;;0.88;0.50;;;;;;;16.42;100.00;95354.50;5074063;28;20909;-70
2023/09/22 10:47:39;;;;;;;0.40;0.30;;;;;;;16.49;100.00;95358.66;5073645;28;20291;-70
2023/09/22 10:50:13;;;;;;;1.13;0.40;;;;;;;16.47;100.00;95374.06;5074699;28;20215;-70
2023/09/22 10:52:49;;;;;;;0.82;0.50;;;;;;;16.32;100.00;95379.03;5075690;28;20206;-70
2023/09/22 10:55:22;;;;;;;0.45;0.45;;;;;;;16.32;100.00;95379.03;5078166;28;20206;-70
2023/09/22 10:57:50;;;;;;;0.90;0.40;;;;;;;16.34;100.00;95374.28;5077887;28;20200;-70
2023/09/22 11:00:18;;;;;;;0.60;0.40;;;;;;;16.46;100.00;95372.44;5078790;28;20335;-71
2023/09/22 11:02:45;;;;;;;0.70;0.60;;;;;;;16.31;100.00;95355.34;5078035;28;20207;-69
2023/09/22 11:05:12;;;;;;;1.27;0.60;;;;;;;16.28;100.00;95367.25;5076817;28;20199;-70
2023/09/22 11:07:41;;;;;;;0.80;0.52;;;;;;;15.98;100.00;95379.78;5078064;28;20627;-70
2023/09/22 11:10:08;;;;;;;2.72;1.02;;;;;;;16.19;100.00;95381.06;5077226;28;20315;-70
2023/09/22 11:12:36;;;;;;;1.15;0.98;;;;;;;16.08;100.00;95388.00;5077833;28;20200;-70
2023/09/22 11:15:03;;;;;;;1.38;0.45;;;;;;;16.13;100.00;95392.66;5077475;28;20203;-70
2023/09/22 11:17:48;;;;;;;1.25;0.60;;;;;;;16.64;100.00;95374.94;5077854;28;20220;-70
2023/09/22 11:20:19;;;;;;;1.10;0.85;;;;;;;16.34;100.00;95368.16;5078495;28;20310;-70
2023/09/22 11:22:47;;;;;;;0.50;0.50;;;;;;;16.43;100.00;95364.91;5077977;28;20264;-70
2023/09/22 11:25:14;;;;;;;0.95;0.40;;;;;;;16.27;100.00;95355.00;5077513;28;20261;-71
2023/09/22 11:27:45;;;;;;;0.40;0.40;;;;;;;16.47;100.00;95371.41;5077200;28;20204;-71